Time;durP1;ratioP1;P1;durP2;ratioP2;P2;SDS_P1;SDS_P2;PMS_P1;PMS_P2;Temp;Humidity;BMP_temperature;BMP_pressure;BME280_temperature;BME280_humidity;BME280_pressure;Samples;Min_cycle;Max_cycle;Signal;HPM_P1;HPM_P2
2021/07/25 00:01:41;;;;;;;7.82;4.18;;;;;;;;;;5015384;28;20041;-79
2021/07/25 00:04:07;;;;;;;7.23;3.97;;;;;;;;;;5030995;28;20112;-80
2021/07/25 00:06:32;;;;;;;8.10;4.00;;;;;;;;;;4997107;28;20023;-79
2021/07/25 00:08:57;;;;;;;7.83;3.97;;;;;;;;;;4999098;28;20111;-79
2021/07/25 00:11:22;;;;;;;7.60;3.90;;;;;;;;;;5011512;28;20068;-79
2021/07/25 00:13:52;;;;;;;7.30;3.97;;;;;;;;;;4998895;28;20536;-79
2021/07/25 00:16:17;;;;;;;7.72;3.85;;;;;;;;;;5025384;28;20030;-79
2021/07/25 00:18:42;;;;;;;7.23;4.00;;;;;;;;;;4998745;28;20029;-79
2021/07/25 00:21:08;;;;;;;7.97;4.07;;;;;;;;;;4998595;28;20084;-79
2021/07/25 00:23:33;;;;;;;7.47;4.07;;;;;;;;;;5014925;28;20050;-79
2021/07/25 00:26:00;;;;;;;7.10;4.00;;;;;;;;;;5011396;28;20068;-79
2021/07/25 00:28:35;;;;;;;7.25;3.85;;;;;;;;;;4995839;28;20452;-79
2021/07/25 00:31:03;;;;;;;7.65;4.15;;;;;;;;;;5017929;28;20088;-79
2021/07/25 00:33:30;;;;;;;7.18;3.80;;;;;;;;;;5017557;28;20021;-79
2021/07/25 00:35:56;;;;;;;7.97;4.10;;;;;;;;;;5014938;28;20034;-79
2021/07/25 00:38:22;;;;;;;8.20;3.73;;;;;;;;;;4983150;28;20044;-79
2021/07/25 00:40:47;;;;;;;7.45;3.78;;;;;;;;;;5020215;28;20065;-79
2021/07/25 00:43:25;;;;;;;7.37;3.93;;;;;;;;;;5018341;28;20044;-79
2021/07/25 00:45:52;;;;;;;7.28;3.47;;;;;;;;;;5018021;28;20040;-79
2021/07/25 00:48:17;;;;;;;7.97;3.83;;;;;;;;;;5035189;28;20054;-79
2021/07/25 00:50:43;;;;;;;6.93;3.90;;;;;;;;;;5017784;28;20511;-79
2021/07/25 00:53:08;;;;;;;6.83;3.90;;;;;;;;;;5001307;28;20366;-79
2021/07/25 00:55:33;;;;;;;7.43;4.17;;;;;;;;;;5001564;28;20439;-79
2021/07/25 00:58:01;;;;;;;7.43;3.87;;;;;;;;;;5018179;28;20080;-79
2021/07/25 01:00:26;;;;;;;7.47;4.20;;;;;;;;;;5033685;28;20026;-80
2021/07/25 01:03:20;;;;;;;8.27;3.97;;;;;;;;;;5017625;28;20057;-79
2021/07/25 01:06:10;;;;;;;7.97;3.97;;;;;;;;;;5018584;28;20084;-79
2021/07/25 01:08:57;;;;;;;6.65;3.50;;;;;;;;;;5019447;28;20022;-79
2021/07/25 01:11:23;;;;;;;8.18;4.03;;;;;;;;;;4998273;28;20402;-79
2021/07/25 01:13:51;;;;;;;7.72;4.05;;;;;;;;;;5017865;28;20100;-79
2021/07/25 01:16:16;;;;;;;6.18;3.63;;;;;;;;;;5017377;28;20544;-79
2021/07/25 01:18:48;;;;;;;7.63;3.80;;;;;;;;;;5018070;28;20064;-79
2021/07/25 01:21:14;;;;;;;6.45;3.40;;;;;;;;;;4998078;28;20567;-79
2021/07/25 01:23:40;;;;;;;8.73;3.38;;;;;;;;;;5014479;28;20025;-79
2021/07/25 01:26:05;;;;;;;7.77;3.60;;;;;;;;;;4993303;28;20069;-79
2021/07/25 01:28:32;;;;;;;6.00;3.30;;;;;;;;;;4997863;28;20049;-79
2021/07/25 01:30:59;;;;;;;6.22;3.55;;;;;;;;;;5005985;28;20033;-79
2021/07/25 01:33:30;;;;;;;7.55;3.97;;;;;;;;;;5017854;28;20072;-79
2021/07/25 01:35:59;;;;;;;8.15;3.60;;;;;;;;;;5013385;28;20069;-79
2021/07/25 01:38:25;;;;;;;7.32;3.55;;;;;;;;;;4997684;28;20484;-79
2021/07/25 01:41:06;;;;;;;7.87;3.40;;;;;;;;;;4986630;28;20034;-79
2021/07/25 01:43:32;;;;;;;7.47;3.72;;;;;;;;;;5017479;28;20076;-79
2021/07/25 01:45:58;;;;;;;5.68;3.05;;;;;;;;;;5000850;28;20038;-79
2021/07/25 01:48:23;;;;;;;7.17;3.90;;;;;;;;;;5034014;28;20033;-79
2021/07/25 01:50:49;;;;;;;8.77;3.47;;;;;;;;;;5017249;28;20377;-80
2021/07/25 01:53:15;;;;;;;6.50;3.23;;;;;;;;;;5016275;28;20555;-79
2021/07/25 01:55:41;;;;;;;6.20;3.53;;;;;;;;;;5017050;28;20108;-79
2021/07/25 01:58:06;;;;;;;6.37;3.47;;;;;;;;;;5016609;28;20030;-79
2021/07/25 02:00:32;;;;;;;7.33;3.63;;;;;;;;;;5000247;28;20084;-79
2021/07/25 02:02:57;;;;;;;9.17;3.60;;;;;;;;;;5000537;28;20100;-79
2021/07/25 02:05:22;;;;;;;7.13;3.80;;;;;;;;;;5012867;28;20037;-79
2021/07/25 02:07:48;;;;;;;7.83;3.40;;;;;;;;;;5026186;28;20038;-79
2021/07/25 02:10:13;;;;;;;6.63;3.53;;;;;;;;;;5032647;28;20049;-79
2021/07/25 02:12:38;;;;;;;6.93;3.37;;;;;;;;;;5000287;28;20036;-79
2021/07/25 02:15:05;;;;;;;6.73;3.60;;;;;;;;;;5018066;28;20029;-79
2021/07/25 02:17:30;;;;;;;7.72;3.78;;;;;;;;;;4984323;28;20551;-79
2021/07/25 02:19:55;;;;;;;6.13;3.27;;;;;;;;;;5016396;28;20057;-79
2021/07/25 02:22:21;;;;;;;7.30;3.40;;;;;;;;;;4997118;28;20065;-79
2021/07/25 02:24:46;;;;;;;6.33;3.67;;;;;;;;;;5026881;28;20032;-79
2021/07/25 02:27:11;;;;;;;7.17;3.13;;;;;;;;;;5017286;28;20053;-79
2021/07/25 02:29:37;;;;;;;5.47;2.90;;;;;;;;;;5016528;28;20053;-79
2021/07/25 02:32:03;;;;;;;7.27;3.50;;;;;;;;;;5017343;28;20466;-79
2021/07/25 02:34:28;;;;;;;6.20;3.42;;;;;;;;;;5015468;28;20053;-79
2021/07/25 02:36:53;;;;;;;6.13;3.20;;;;;;;;;;5015693;28;20532;-79
2021/07/25 02:39:19;;;;;;;6.33;3.43;;;;;;;;;;5000278;28;20026;-79
2021/07/25 02:41:44;;;;;;;6.27;3.37;;;;;;;;;;4980081;28;20066;-79
2021/07/25 02:44:09;;;;;;;6.37;3.00;;;;;;;;;;5013318;28;20049;-79
2021/07/25 02:46:35;;;;;;;6.53;3.37;;;;;;;;;;5026327;28;20105;-79
2021/07/25 02:49:01;;;;;;;6.83;3.23;;;;;;;;;;4999284;28;20117;-79
2021/07/25 02:51:26;;;;;;;6.80;3.47;;;;;;;;;;5015581;28;20026;-79
2021/07/25 02:53:51;;;;;;;6.93;3.50;;;;;;;;;;4999302;28;20289;-79
2021/07/25 02:56:17;;;;;;;6.67;3.40;;;;;;;;;;4996862;28;20489;-79
2021/07/25 02:58:42;;;;;;;7.13;3.57;;;;;;;;;;4997499;28;20110;-79
2021/07/25 03:01:11;;;;;;;6.50;3.50;;;;;;;;;;5022895;28;20065;-79
2021/07/25 03:03:37;;;;;;;6.25;3.38;;;;;;;;;;5016223;28;20022;-79
2021/07/25 03:06:02;;;;;;;6.22;3.15;;;;;;;;;;4999969;28;20396;-79
2021/07/25 03:08:28;;;;;;;11.30;3.50;;;;;;;;;;5014314;28;20066;-79
2021/07/25 03:10:53;;;;;;;6.33;3.10;;;;;;;;;;5016506;28;20057;-79
2021/07/25 03:13:18;;;;;;;6.83;3.43;;;;;;;;;;5017630;28;20053;-79
2021/07/25 03:15:44;;;;;;;7.57;3.30;;;;;;;;;;4999748;28;20493;-79
2021/07/25 03:18:09;;;;;;;6.43;3.63;;;;;;;;;;5016239;28;20068;-79
2021/07/25 03:20:34;;;;;;;8.83;3.40;;;;;;;;;;4999368;28;20037;-79
2021/07/25 03:23:00;;;;;;;9.60;3.30;;;;;;;;;;4999617;28;20041;-79
2021/07/25 03:25:25;;;;;;;5.67;3.27;;;;;;;;;;4999826;28;20069;-79
2021/07/25 03:27:50;;;;;;;6.90;3.60;;;;;;;;;;5012864;28;20026;-79
2021/07/25 03:30:16;;;;;;;5.90;3.23;;;;;;;;;;5021091;28;20065;-79
2021/07/25 03:32:41;;;;;;;7.63;3.63;;;;;;;;;;4995574;28;20104;-78
2021/07/25 03:35:07;;;;;;;6.47;3.07;;;;;;;;;;4999029;28;20122;-78
2021/07/25 03:37:32;;;;;;;6.43;3.33;;;;;;;;;;5031564;28;20175;-78
2021/07/25 03:39:58;;;;;;;6.45;3.10;;;;;;;;;;5015452;28;20371;-78
2021/07/25 03:42:24;;;;;;;7.30;3.27;;;;;;;;;;5015103;28;20030;-78
2021/07/25 03:44:49;;;;;;;6.97;3.00;;;;;;;;;;5015394;28;20476;-78
2021/07/25 03:47:15;;;;;;;7.13;3.57;;;;;;;;;;4995364;28;20030;-78
2021/07/25 03:49:40;;;;;;;8.93;3.63;;;;;;;;;;5013084;28;20106;-78
2021/07/25 03:52:06;;;;;;;6.63;3.47;;;;;;;;;;5027653;28;20041;-78
2021/07/25 03:54:33;;;;;;;6.32;3.28;;;;;;;;;;5021604;23;20495;-80
2021/07/25 03:56:58;;;;;;;;;;;;;;;;;;5006158;28;20057;-78
2021/07/25 03:59:23;;;;;;;8.63;3.60;;;;;;;;;;5032188;28;20358;-79
2021/07/25 04:01:49;;;;;;;7.40;3.47;;;;;;;;;;5032027;28;20065;-79
2021/07/25 04:04:14;;;;;;;7.43;3.60;;;;;;;;;;5032025;28;20045;-78
2021/07/25 04:06:39;;;;;;;8.20;3.50;;;;;;;;;;5020055;28;20042;-79
2021/07/25 04:09:05;;;;;;;7.57;3.20;;;;;;;;;;4990734;28;20125;-78
2021/07/25 04:11:30;;;;;;;8.37;3.47;;;;;;;;;;4999139;28;20065;-78
2021/07/25 04:13:55;;;;;;;6.97;3.13;;;;;;;;;;5032538;28;20053;-79
2021/07/25 04:16:21;;;;;;;6.60;3.07;;;;;;;;;;5016079;28;20539;-78
2021/07/25 04:18:46;;;;;;;6.00;3.20;;;;;;;;;;5013117;28;20081;-78
2021/07/25 04:21:11;;;;;;;7.70;3.50;;;;;;;;;;4996452;28;20067;-79
2021/07/25 04:23:40;;;;;;;7.73;3.27;;;;;;;;;;4980038;28;20015;-78
2021/07/25 04:26:06;;;;;;;6.97;3.50;;;;;;;;;;4989548;28;20026;-78
2021/07/25 04:28:31;;;;;;;7.15;3.20;;;;;;;;;;5031711;28;20496;-78
2021/07/25 04:30:57;;;;;;;8.63;3.37;;;;;;;;;;4979821;28;20128;-79
2021/07/25 04:33:22;;;;;;;6.03;3.23;;;;;;;;;;4985650;28;20018;-79
2021/07/25 04:35:48;;;;;;;6.40;2.87;;;;;;;;;;5008900;28;20044;-79
2021/07/25 04:38:14;;;;;;;8.63;3.30;;;;;;;;;;4979880;28;20397;-78
2021/07/25 04:40:40;;;;;;;7.63;3.45;;;;;;;;;;5002808;28;20054;-78
2021/07/25 04:43:05;;;;;;;6.50;3.20;;;;;;;;;;5011969;28;20026;-78
2021/07/25 04:45:43;;;;;;;7.13;3.20;;;;;;;;;;4995826;28;20041;-78
2021/07/25 04:48:08;;;;;;;6.53;3.00;;;;;;;;;;4979670;28;20041;-78
2021/07/25 04:50:39;;;;;;;8.73;3.40;;;;;;;;;;5002372;28;20420;-78
2021/07/25 04:53:05;;;;;;;5.80;3.08;;;;;;;;;;5028436;28;20018;-78
2021/07/25 04:55:34;;;;;;;8.02;3.58;;;;;;;;;;4988365;28;20022;-78
2021/07/25 04:58:05;;;;;;;6.15;3.05;;;;;;;;;;4996743;28;20397;-78
2021/07/25 05:00:30;;;;;;;6.05;3.13;;;;;;;;;;4996830;28;20034;-78
2021/07/25 05:03:00;;;;;;;6.73;3.33;;;;;;;;;;5012326;28;20477;-78
2021/07/25 05:05:26;;;;;;;6.75;3.00;;;;;;;;;;4999229;28;20084;-78
2021/07/25 05:07:51;;;;;;;7.00;3.37;;;;;;;;;;5015107;28;20366;-78
2021/07/25 05:10:17;;;;;;;6.37;3.10;;;;;;;;;;4997727;28;20070;-78
2021/07/25 05:12:51;;;;;;;5.70;3.03;;;;;;;;;;5023836;28;20022;-78
2021/07/25 05:15:19;;;;;;;6.57;3.20;;;;;;;;;;4998169;28;20485;-78
2021/07/25 05:18:10;;;;;;;6.43;3.20;;;;;;;;;;5014326;28;20080;-78
2021/07/25 05:20:46;;;;;;;5.53;2.80;;;;;;;;;;5014832;28;20037;-78
2021/07/25 05:23:17;;;;;;;7.15;3.22;;;;;;;;;;5023253;28;20085;-78
2021/07/25 05:25:47;;;;;;;6.50;3.10;;;;;;;;;;4978851;28;20022;-78
2021/07/25 05:28:13;;;;;;;7.68;3.05;;;;;;;;;;5030599;28;20022;-78
2021/07/25 05:30:40;;;;;;;6.10;3.20;;;;;;;;;;4993720;28;20060;-78
2021/07/25 05:33:07;;;;;;;7.68;2.97;;;;;;;;;;5010010;28;20033;-78
2021/07/25 05:35:32;;;;;;;6.43;2.90;;;;;;;;;;5014554;28;20061;-78
2021/07/25 05:37:58;;;;;;;5.73;2.77;;;;;;;;;;5030848;28;20037;-78
2021/07/25 05:40:23;;;;;;;7.83;3.30;;;;;;;;;;5013890;28;20129;-78
2021/07/25 05:42:48;;;;;;;7.17;3.13;;;;;;;;;;5000874;28;20397;-78
2021/07/25 05:45:14;;;;;;;6.47;2.83;;;;;;;;;;4999736;28;20022;-78
2021/07/25 05:47:40;;;;;;;6.60;3.07;;;;;;;;;;5030688;28;20109;-78
2021/07/25 05:50:06;;;;;;;6.93;3.30;;;;;;;;;;4985291;28;20053;-78
2021/07/25 05:52:54;;;;;;;6.25;2.90;;;;;;;;;;4997409;28;20370;-78
2021/07/25 05:55:20;;;;;;;6.00;3.15;;;;;;;;;;5011553;28;20092;-78
2021/07/25 05:57:45;;;;;;;7.13;3.10;;;;;;;;;;5024448;28;20448;-78
2021/07/25 06:00:11;;;;;;;5.57;2.83;;;;;;;;;;4979358;28;20121;-78
2021/07/25 06:02:52;;;;;;;5.93;3.08;;;;;;;;;;4993925;28;20030;-78
2021/07/25 06:05:17;;;;;;;5.93;2.97;;;;;;;;;;5010344;28;20037;-78
2021/07/25 06:07:43;;;;;;;7.60;2.87;;;;;;;;;;4995440;28;20042;-78
2021/07/25 06:10:09;;;;;;;6.23;3.13;;;;;;;;;;4978785;28;20037;-78
2021/07/25 06:12:36;;;;;;;5.95;3.17;;;;;;;;;;4994128;28;20058;-78
2021/07/25 06:15:01;;;;;;;6.00;2.85;;;;;;;;;;5011557;28;20037;-78
2021/07/25 06:17:26;;;;;;;5.87;2.93;;;;;;;;;;4995276;28;20061;-79
2021/07/25 06:19:52;;;;;;;5.87;2.90;;;;;;;;;;4979575;28;20058;-78
2021/07/25 06:22:17;;;;;;;5.97;2.67;;;;;;;;;;4979294;28;20065;-79
2021/07/25 06:24:42;;;;;;;6.20;2.90;;;;;;;;;;4986031;28;20424;-78
2021/07/25 06:27:08;;;;;;;5.53;3.07;;;;;;;;;;5030205;28;20021;-78
2021/07/25 06:29:33;;;;;;;5.93;3.00;;;;;;;;;;5012734;28;20058;-78
2021/07/25 06:31:58;;;;;;;6.20;2.90;;;;;;;;;;5013506;28;20060;-78
2021/07/25 06:34:24;;;;;;;6.87;3.20;;;;;;;;;;5007821;28;20057;-78
2021/07/25 06:36:50;;;;;;;;;;;;;;;;;;4994519;28;20141;-78
2021/07/25 06:39:15;;;;;;;5.87;2.97;;;;;;;;;;5027558;28;20363;-79
2021/07/25 06:41:40;;;;;;;6.27;2.87;;;;;;;;;;5013472;28;20025;-78
2021/07/25 06:44:06;;;;;;;5.80;2.77;;;;;;;;;;4995528;28;20065;-78
2021/07/25 06:46:32;;;;;;;5.33;2.43;;;;;;;;;;4996883;28;20369;-78
2021/07/25 06:48:58;;;;;;;;;;;;;;;;;;5013168;28;20465;-78
2021/07/25 06:51:23;;;;;;;5.57;2.90;;;;;;;;;;5029551;28;19967;-79
2021/07/25 06:53:48;;;;;;;5.97;2.90;;;;;;;;;;5027824;28;20065;-78
2021/07/25 06:56:14;;;;;;;7.53;2.90;;;;;;;;;;4993626;28;20054;-78
2021/07/25 06:58:41;;;;;;;6.03;2.88;;;;;;;;;;4993431;28;20030;-78
2021/07/25 07:01:08;;;;;;;5.50;2.90;;;;;;;;;;4977435;28;20448;-78
2021/07/25 07:03:36;;;;;;;6.95;2.83;;;;;;;;;;4977459;28;20014;-78
2021/07/25 07:06:05;;;;;;;4.78;2.75;;;;;;;;;;4996675;28;20440;-78
2021/07/25 07:08:31;;;;;;;5.93;2.72;;;;;;;;;;5013090;28;20029;-79
2021/07/25 07:10:56;;;;;;;4.87;2.80;;;;;;;;;;5013130;28;20082;-79
2021/07/25 07:13:21;;;;;;;5.77;2.80;;;;;;;;;;4997514;28;20064;-79
2021/07/25 07:15:47;;;;;;;6.00;2.80;;;;;;;;;;4993746;28;20068;-79
2021/07/25 07:18:12;;;;;;;7.03;3.10;;;;;;;;;;4993911;28;20049;-79
2021/07/25 07:20:38;;;;;;;6.53;2.80;;;;;;;;;;4993246;28;20121;-79
2021/07/25 07:23:05;;;;;;;5.77;2.70;;;;;;;;;;4993163;28;20062;-79
2021/07/25 07:25:43;;;;;;;6.30;2.80;;;;;;;;;;4977081;28;20022;-79
2021/07/25 07:28:09;;;;;;;5.60;2.75;;;;;;;;;;4993343;28;20023;-79
2021/07/25 07:30:34;;;;;;;5.67;2.80;;;;;;;;;;4993435;28;20033;-79
2021/07/25 07:33:15;;;;;;;5.90;2.50;;;;;;;;;;4977006;28;20053;-79
2021/07/25 07:35:41;;;;;;;6.95;2.70;;;;;;;;;;4993210;28;20105;-79
2021/07/25 07:38:07;;;;;;;7.10;3.10;;;;;;;;;;4993376;28;20504;-79
2021/07/25 07:40:32;;;;;;;;;;;;;;;;;;4993083;28;20029;-79
2021/07/25 07:42:58;;;;;;;6.00;2.83;;;;;;;;;;4992870;28;20002;-78
2021/07/25 07:45:23;;;;;;;6.00;2.90;;;;;;;;;;5009594;28;20097;-82
2021/07/25 07:47:49;;;;;;;5.83;2.57;;;;;;;;;;4992945;28;20385;-79
2021/07/25 07:50:15;;;;;;;4.70;2.47;;;;;;;;;;4992936;28;20029;-79
2021/07/25 07:52:40;;;;;;;5.85;2.67;;;;;;;;;;4992982;28;20030;-80
2021/07/25 07:55:06;;;;;;;4.40;2.47;;;;;;;;;;4998545;28;20060;-80
2021/07/25 07:57:31;;;;;;;5.40;2.50;;;;;;;;;;5011819;28;20022;-80
2021/07/25 07:59:57;;;;;;;4.40;2.43;;;;;;;;;;4996040;28;20456;-79
2021/07/25 08:02:22;;;;;;;4.37;2.43;;;;;;;;;;5010777;28;20057;-79
2021/07/25 08:04:47;;;;;;;4.73;2.50;;;;;;;;;;5008350;28;20069;-79
2021/07/25 08:07:13;;;;;;;4.70;2.67;;;;;;;;;;4991549;28;20062;-79
2021/07/25 08:09:38;;;;;;;5.87;2.57;;;;;;;;;;5012262;28;20026;-79
2021/07/25 08:12:06;;;;;;;4.60;2.40;;;;;;;;;;5007953;28;20069;-80
2021/07/25 08:14:31;;;;;;;4.22;2.33;;;;;;;;;;5008910;28;20052;-80
2021/07/25 08:16:57;;;;;;;5.13;2.70;;;;;;;;;;4996026;28;20540;-79
2021/07/25 08:19:22;;;;;;;5.53;2.60;;;;;;;;;;4980660;28;20066;-79
2021/07/25 08:21:47;;;;;;;4.77;2.60;;;;;;;;;;4992677;28;20058;-80
2021/07/25 08:24:13;;;;;;;5.00;2.70;;;;;;;;;;4993794;28;20066;-79
2021/07/25 08:26:38;;;;;;;4.27;2.10;;;;;;;;;;4995876;28;20061;-79
2021/07/25 08:29:03;;;;;;;4.43;2.50;;;;;;;;;;5012013;28;20456;-79
2021/07/25 08:31:29;;;;;;;5.47;2.50;;;;;;;;;;4996011;28;20025;-79
2021/07/25 08:33:54;;;;;;;5.40;2.73;;;;;;;;;;4995143;28;20026;-79
2021/07/25 08:36:19;;;;;;;4.83;2.67;;;;;;;;;;4979862;28;20072;-79
2021/07/25 08:38:45;;;;;;;5.03;2.90;;;;;;;;;;4979241;28;20136;-79
2021/07/25 08:41:13;;;;;;;4.80;2.53;;;;;;;;;;4995992;28;20053;-79
2021/07/25 08:43:40;;;;;;;5.05;2.28;;;;;;;;;;4979882;28;20465;-79
2021/07/25 08:46:12;;;;;;;4.88;2.53;;;;;;;;;;4979758;28;20034;-79
2021/07/25 08:48:37;;;;;;;4.45;2.45;;;;;;;;;;4995991;28;20041;-79
2021/07/25 08:51:04;;;;;;;5.73;2.60;;;;;;;;;;4979750;28;20473;-79
2021/07/25 08:53:34;;;;;;;5.25;2.58;;;;;;;;;;4982378;28;20032;-79
2021/07/25 08:56:00;;;;;;;6.22;2.72;;;;;;;;;;4999594;28;20370;-79
2021/07/25 08:58:25;;;;;;;4.50;2.37;;;;;;;;;;4999114;28;20038;-79
2021/07/25 09:00:52;;;;;;;5.77;2.67;;;;;;;;;;4999472;28;20693;-79
2021/07/25 09:03:17;;;;;;;5.35;2.72;;;;;;;;;;4983401;28;20022;-79
2021/07/25 09:05:42;;;;;;;5.13;2.60;;;;;;;;;;4982910;28;20032;-79
2021/07/25 09:08:08;;;;;;;5.87;2.80;;;;;;;;;;4983033;28;20028;-79
2021/07/25 09:10:33;;;;;;;5.37;2.63;;;;;;;;;;4982802;28;20432;-79
2021/07/25 09:12:59;;;;;;;5.53;2.73;;;;;;;;;;5015794;28;20017;-79
2021/07/25 09:15:26;;;;;;;5.33;2.40;;;;;;;;;;4982765;28;20109;-79
2021/07/25 09:17:52;;;;;;;5.53;2.67;;;;;;;;;;4982808;28;20065;-79
2021/07/25 09:20:18;;;;;;;4.75;2.42;;;;;;;;;;4998638;28;20503;-79
2021/07/25 09:22:50;;;;;;;;;;;;;;;;;;4999128;28;20424;-79
2021/07/25 09:25:22;;;;;;;5.50;2.78;;;;;;;;;;5031717;28;19968;-79
2021/07/25 09:28:12;;;;;;;4.82;2.65;;;;;;;;;;5015124;28;20018;-79
2021/07/25 09:30:37;;;;;;;5.40;2.65;;;;;;;;;;4998602;28;20029;-79
2021/07/25 09:33:39;;;;;;;5.27;2.57;;;;;;;;;;4998519;28;20037;-79
2021/07/25 09:36:07;;;;;;;4.95;2.30;;;;;;;;;;5000647;28;20050;-79
2021/07/25 09:38:33;;;;;;;6.13;2.90;;;;;;;;;;4998645;28;20400;-79
2021/07/25 09:40:58;;;;;;;5.23;2.40;;;;;;;;;;5014737;28;20026;-79
2021/07/25 09:43:24;;;;;;;6.17;2.60;;;;;;;;;;4998204;28;20018;-79
2021/07/25 09:45:56;;;;;;;5.32;2.60;;;;;;;;;;4982019;28;20026;-79
2021/07/25 09:48:35;;;;;;;5.38;2.60;;;;;;;;;;5014786;28;20030;-79
2021/07/25 09:51:01;;;;;;;5.22;2.58;;;;;;;;;;4983144;28;20026;-79
2021/07/25 09:53:44;;;;;;;5.03;2.42;;;;;;;;;;4981784;28;20026;-79
2021/07/25 09:58:37;;;;;;;5.20;2.58;;;;;;;;;;5013406;28;20054;-76
2021/07/25 10:01:02;;;;;;;6.17;2.80;;;;;;;;;;5013878;28;20535;-76
2021/07/25 10:03:33;;;;;;;5.23;2.57;;;;;;;;;;5029491;28;20421;-76
2021/07/25 10:06:18;;;;;;;5.57;2.45;;;;;;;;;;5013913;28;20025;-76
2021/07/25 10:08:44;;;;;;;6.10;2.60;;;;;;;;;;4999798;28;20022;-76
2021/07/25 10:11:09;;;;;;;6.78;2.85;;;;;;;;;;4997354;28;20018;-76
2021/07/25 10:13:35;;;;;;;5.50;2.50;;;;;;;;;;4997268;28;20516;-76
2021/07/25 10:16:00;;;;;;;5.67;2.60;;;;;;;;;;5013792;28;20587;-76
2021/07/25 10:18:27;;;;;;;5.80;2.47;;;;;;;;;;4997240;28;20443;-76
2021/07/25 10:20:57;;;;;;;6.32;2.50;;;;;;;;;;4997288;28;20034;-76
2021/07/25 10:23:29;;;;;;;5.95;2.53;;;;;;;;;;4997196;28;20025;-76
2021/07/25 10:25:55;;;;;;;5.55;2.47;;;;;;;;;;4997316;28;20394;-76
2021/07/25 10:28:20;;;;;;;6.00;2.65;;;;;;;;;;4981557;28;20076;-76
2021/07/25 10:30:50;;;;;;;5.13;2.57;;;;;;;;;;4997010;28;20109;-76
2021/07/25 10:33:17;;;;;;;4.75;2.45;;;;;;;;;;5013289;28;20083;-76
2021/07/25 10:35:42;;;;;;;;;;;;;;;;;;4997264;28;20057;-76
2021/07/25 10:38:08;;;;;;;5.32;2.47;;;;;;;;;;5013411;28;19937;-76
2021/07/25 10:40:35;;;;;;;6.13;2.80;;;;;;;;;;4996958;28;20061;-76
2021/07/25 10:43:01;;;;;;;7.03;2.85;;;;;;;;;;4981010;28;20034;-76
2021/07/25 10:45:26;;;;;;;4.97;2.58;;;;;;;;;;4996900;28;20022;-76
2021/07/25 10:47:52;;;;;;;5.63;2.57;;;;;;;;;;4980418;28;20434;-76
2021/07/25 10:50:21;;;;;;;4.82;2.30;;;;;;;;;;4997433;28;20459;-76
2021/07/25 10:52:49;;;;;;;5.28;2.55;;;;;;;;;;4996482;28;20033;-76
2021/07/25 10:55:42;;;;;;;4.75;2.22;;;;;;;;;;5012761;28;20458;-76
2021/07/25 10:58:20;;;;;;;5.72;2.47;;;;;;;;;;4996349;28;20396;-76
2021/07/25 11:00:49;;;;;;;6.53;2.70;;;;;;;;;;4996507;28;20030;-76
2021/07/25 11:03:30;;;;;;;4.93;2.58;;;;;;;;;;4996679;28;20032;-76
2021/07/25 11:06:13;;;;;;;5.38;2.60;;;;;;;;;;5013836;28;20029;-76
2021/07/25 11:08:42;;;;;;;5.07;2.33;;;;;;;;;;5013902;28;20049;-76
2021/07/25 11:11:26;;;;;;;5.30;2.40;;;;;;;;;;5012647;28;20060;-76
2021/07/25 11:13:52;;;;;;;5.40;2.72;;;;;;;;;;5013948;28;20396;-76
2021/07/25 11:16:29;;;;;;;5.95;2.45;;;;;;;;;;5028616;28;20021;-76
2021/07/25 11:18:59;;;;;;;4.22;2.42;;;;;;;;;;5013660;28;20041;-76
2021/07/25 11:21:40;;;;;;;6.13;2.85;;;;;;;;;;5012470;28;20034;-76
2021/07/25 11:24:18;;;;;;;5.00;2.42;;;;;;;;;;4980606;28;20504;-76
2021/07/25 11:26:43;;;;;;;6.00;2.55;;;;;;;;;;5013575;28;20088;-76
2021/07/25 11:29:09;;;;;;;6.83;2.70;;;;;;;;;;5012498;28;20025;-76
2021/07/25 11:31:35;;;;;;;;;;;;;;;;;;4996666;28;20507;-76
2021/07/25 11:34:01;;;;;;;7.55;2.85;;;;;;;;;;4995819;28;20018;-76
2021/07/25 11:36:27;;;;;;;5.82;2.70;;;;;;;;;;4979769;28;20504;-76
2021/07/25 11:38:58;;;;;;;7.27;2.50;;;;;;;;;;4996141;28;20073;-76
2021/07/25 11:41:27;;;;;;;6.43;2.80;;;;;;;;;;4996507;28;20065;-76
2021/07/25 11:44:13;;;;;;;7.13;2.97;;;;;;;;;;5013336;28;20025;-76
2021/07/25 11:46:48;;;;;;;5.80;2.63;;;;;;;;;;5013082;28;20408;-76
2021/07/25 11:49:14;;;;;;;6.10;2.38;;;;;;;;;;5012222;28;20025;-76
2021/07/25 11:51:42;;;;;;;7.47;2.58;;;;;;;;;;4995717;28;20388;-76
2021/07/25 11:54:07;;;;;;;5.35;2.50;;;;;;;;;;4995953;28;20473;-76
2021/07/25 11:56:32;;;;;;;6.17;2.50;;;;;;;;;;4995686;28;20108;-76
2021/07/25 11:59:05;;;;;;;5.03;2.27;;;;;;;;;;4979531;28;20447;-76
2021/07/25 12:01:32;;;;;;;5.70;2.70;;;;;;;;;;4995791;28;20076;-76
2021/07/25 12:03:57;;;;;;;5.43;2.53;;;;;;;;;;4995665;28;20022;-76
2021/07/25 12:06:22;;;;;;;5.17;2.47;;;;;;;;;;5012137;28;20033;-76
2021/07/25 12:09:04;;;;;;;6.60;2.67;;;;;;;;;;4995655;28;20023;-76
2021/07/25 12:11:29;;;;;;;5.55;2.67;;;;;;;;;;5011997;28;20022;-76
2021/07/25 12:13:54;;;;;;;5.37;2.60;;;;;;;;;;4995390;28;20118;-76
2021/07/25 12:16:19;;;;;;;5.10;2.30;;;;;;;;;;5013115;28;20065;-76
2021/07/25 12:18:46;;;;;;;6.03;2.77;;;;;;;;;;4995529;28;20105;-76
2021/07/25 12:21:31;;;;;;;5.88;2.33;;;;;;;;;;5011762;28;20069;-76
2021/07/25 12:23:57;;;;;;;5.80;2.40;;;;;;;;;;4995975;28;20022;-76
2021/07/25 12:26:41;;;;;;;;;;;;;;;;;;4979730;28;20068;-76
2021/07/25 12:29:38;;;;;;;4.88;2.30;;;;;;;;;;5016811;28;20000;-76
2021/07/25 12:32:19;;;;;;;5.63;2.80;;;;;;;;;;4999185;28;20076;-76
2021/07/25 12:34:45;;;;;;;6.03;2.38;;;;;;;;;;4999165;28;20057;-76
2021/07/25 12:37:26;;;;;;;6.43;2.70;;;;;;;;;;4999150;28;20058;-76
2021/07/25 12:40:24;;;;;;;5.55;2.35;;;;;;;;;;5015480;28;20025;-76
2021/07/25 12:43:11;;;;;;;5.38;2.20;;;;;;;;;;5014905;28;20030;-76
2021/07/25 12:45:38;;;;;;;4.30;2.25;;;;;;;;;;5015090;28;20029;-76
2021/07/25 12:48:13;;;;;;;4.55;2.28;;;;;;;;;;4999165;28;20022;-76
2021/07/25 12:53:34;;;;;;;4.80;2.47;;;;;;;;;;5014152;28;20096;-76
2021/07/25 12:56:00;;;;;;;5.13;2.35;;;;;;;;;;4998985;28;20449;-76
2021/07/25 12:58:31;;;;;;;6.35;2.45;;;;;;;;;;4998736;28;20058;-76
2021/07/25 13:06:09;;;;;;;5.90;2.63;;;;;;;;;;5001740;28;20122;-76
2021/07/25 13:08:34;;;;;;;5.10;2.57;;;;;;;;;;5014841;28;20077;-76
2021/07/25 13:11:01;;;;;;;5.77;2.57;;;;;;;;;;4998399;28;20116;-76
2021/07/25 13:13:26;;;;;;;5.65;2.50;;;;;;;;;;4998459;28;20428;-76
2021/07/25 13:15:51;;;;;;;7.73;2.77;;;;;;;;;;4998377;28;20034;-76
2021/07/25 13:18:17;;;;;;;7.30;2.60;;;;;;;;;;4998385;28;20503;-76
2021/07/25 13:20:42;;;;;;;5.40;2.47;;;;;;;;;;4998313;28;20539;-76
2021/07/25 13:23:07;;;;;;;4.70;2.30;;;;;;;;;;4998211;28;20520;-76
2021/07/25 13:25:33;;;;;;;4.53;2.30;;;;;;;;;;5015013;28;20421;-76
2021/07/25 13:27:58;;;;;;;5.43;2.27;;;;;;;;;;5015757;28;20057;-76
2021/07/25 13:30:23;;;;;;;5.17;2.33;;;;;;;;;;5014504;28;20103;-76
2021/07/25 13:32:49;;;;;;;6.53;2.50;;;;;;;;;;4998390;28;20028;-76
2021/07/25 13:35:14;;;;;;;4.77;2.47;;;;;;;;;;5014338;28;20561;-76
2021/07/25 13:37:39;;;;;;;5.77;2.30;;;;;;;;;;5015494;28;20481;-76
2021/07/25 13:40:05;;;;;;;6.30;2.50;;;;;;;;;;5014351;28;20430;-76
2021/07/25 13:42:32;;;;;;;5.10;2.55;;;;;;;;;;5014162;28;20463;-76
2021/07/25 13:45:01;;;;;;;4.95;2.50;;;;;;;;;;4982040;28;20029;-76
2021/07/25 13:47:27;;;;;;;5.57;2.47;;;;;;;;;;4998584;28;20062;-76
2021/07/25 13:49:52;;;;;;;5.47;2.47;;;;;;;;;;4997954;28;20065;-76
2021/07/25 13:52:17;;;;;;;5.20;2.40;;;;;;;;;;4997726;28;20061;-76
2021/07/25 13:54:43;;;;;;;5.17;2.47;;;;;;;;;;4997586;28;20062;-76
2021/07/25 13:57:08;;;;;;;5.73;2.40;;;;;;;;;;4997448;28;20065;-76
2021/07/25 13:59:33;;;;;;;4.77;2.27;;;;;;;;;;4997713;28;20057;-76
2021/07/25 14:01:59;;;;;;;5.10;2.37;;;;;;;;;;4997598;28;20060;-76
2021/07/25 14:04:24;;;;;;;5.07;2.27;;;;;;;;;;4981233;28;20469;-76
2021/07/25 14:06:49;;;;;;;5.63;2.57;;;;;;;;;;5013793;28;20493;-76
2021/07/25 14:09:15;;;;;;;4.40;2.40;;;;;;;;;;5014148;28;20483;-76
2021/07/25 14:11:42;;;;;;;5.33;2.40;;;;;;;;;;5013792;28;20034;-76
2021/07/25 14:14:08;;;;;;;5.15;2.50;;;;;;;;;;5013573;28;20026;-76
2021/07/25 14:16:33;;;;;;;5.33;2.30;;;;;;;;;;5013581;28;20115;-76
2021/07/25 14:18:58;;;;;;;4.07;2.07;;;;;;;;;;5013562;28;20392;-76
2021/07/25 14:21:24;;;;;;;4.43;2.23;;;;;;;;;;5013444;28;20130;-76
2021/07/25 14:23:49;;;;;;;4.50;2.27;;;;;;;;;;4997236;28;20112;-76
2021/07/25 14:26:14;;;;;;;5.63;2.57;;;;;;;;;;5013455;28;20057;-76
2021/07/25 14:28:41;;;;;;;5.30;2.50;;;;;;;;;;5013315;28;20026;-76
2021/07/25 14:31:06;;;;;;;5.65;2.40;;;;;;;;;;4997089;28;20022;-76
2021/07/25 14:33:37;;;;;;;5.17;2.40;;;;;;;;;;5013025;28;20036;-76
2021/07/25 14:36:05;;;;;;;5.05;2.45;;;;;;;;;;5013786;28;20477;-76
2021/07/25 14:38:30;;;;;;;4.00;2.25;;;;;;;;;;4996729;28;20030;-76
2021/07/25 14:40:56;;;;;;;5.63;2.47;;;;;;;;;;4996671;28;20503;-76
2021/07/25 14:43:21;;;;;;;6.23;2.53;;;;;;;;;;4996700;28;20104;-76
2021/07/25 14:45:46;;;;;;;5.70;2.33;;;;;;;;;;5013109;28;20057;-76
2021/07/25 14:48:12;;;;;;;5.00;2.40;;;;;;;;;;4996820;28;20065;-76
2021/07/25 14:50:37;;;;;;;6.53;2.70;;;;;;;;;;5012339;28;20065;-76
2021/07/25 14:53:04;;;;;;;5.00;2.33;;;;;;;;;;4996515;28;20025;-76
2021/07/25 14:55:29;;;;;;;5.25;2.55;;;;;;;;;;4996820;28;20054;-76
2021/07/25 14:57:54;;;;;;;6.80;2.87;;;;;;;;;;4996390;28;20072;-76
2021/07/25 15:00:20;;;;;;;5.37;2.40;;;;;;;;;;4996495;28;20059;-77